createdAt,value
2023-03-08T00:00:25.422Z,96866.00
2023-03-08T00:02:59.259Z,96867.00
2023-03-08T00:05:36.008Z,96876.00
2023-03-08T00:08:13.065Z,96871.00
2023-03-08T00:10:48.784Z,96873.00
2023-03-08T00:13:24.836Z,96864.00
2023-03-08T00:16:00.199Z,96876.00
2023-03-08T00:18:34.704Z,96879.00
2023-03-08T00:21:11.609Z,96868.00
2023-03-08T00:23:51.874Z,96869.00
2023-03-08T00:26:35.819Z,96865.00
2023-03-08T00:29:11.211Z,96872.00
2023-03-08T00:31:44.087Z,96873.00
2023-03-08T00:34:14.422Z,96877.00
2023-03-08T00:36:51.212Z,96884.00
2023-03-08T00:39:21.997Z,96872.00
2023-03-08T00:41:58.826Z,96882.00
2023-03-08T00:44:34.467Z,96875.00
2023-03-08T00:47:10.583Z,96890.00
2023-03-08T00:49:48.590Z,96891.00
2023-03-08T00:52:26.071Z,96883.00
2023-03-08T00:55:02.803Z,96888.00
2023-03-08T00:57:38.241Z,96902.00
2023-03-08T01:00:11.590Z,96900.00
2023-03-08T01:02:44.732Z,96898.00
2023-03-08T01:05:22.416Z,96891.00
2023-03-08T01:07:56.387Z,96889.00
2023-03-08T01:10:28.420Z,96900.00
2023-03-08T01:12:57.649Z,96902.00
2023-03-08T01:15:34.792Z,96887.00
2023-03-08T01:18:04.083Z,96890.00
2023-03-08T01:20:36.148Z,96881.00
2023-03-08T01:23:10.004Z,96885.00
2023-03-08T01:25:44.270Z,96889.00
2023-03-08T01:28:17.207Z,96885.00
2023-03-08T01:30:56.924Z,96879.00
2023-03-08T01:33:31.072Z,96890.00
2023-03-08T01:36:00.384Z,96889.00
2023-03-08T01:38:35.243Z,96884.00
2023-03-08T01:41:09.969Z,96882.00
2023-03-08T01:43:44.965Z,96872.00
2023-03-08T01:46:23.675Z,96886.00
2023-03-08T01:49:05.052Z,96875.00
2023-03-08T01:51:40.715Z,96865.00
2023-03-08T01:54:11.542Z,96864.00
2023-03-08T01:56:45.306Z,96859.00
2023-03-08T01:59:14.747Z,96865.00
2023-03-08T02:01:47.185Z,96860.00
2023-03-08T02:04:23.179Z,96856.00
2023-03-08T02:06:52.496Z,96859.00
2023-03-08T02:09:24.150Z,96855.00
2023-03-08T02:11:54.982Z,96861.00
2023-03-08T02:14:24.237Z,96859.00
2023-03-08T02:16:56.116Z,96856.00
2023-03-08T02:19:32.907Z,96846.00
2023-03-08T02:22:09.086Z,96862.00
2023-03-08T02:24:50.299Z,96859.00
2023-03-08T02:27:24.104Z,96865.00
2023-03-08T02:29:56.995Z,96855.00
2023-03-08T02:32:29.119Z,96864.00
2023-03-08T02:34:59.147Z,96856.00
2023-03-08T02:37:31.956Z,96847.00
2023-03-08T02:40:05.611Z,96859.00
2023-03-08T02:42:35.041Z,96853.00
2023-03-08T02:45:10.088Z,96866.00
2023-03-08T02:47:42.932Z,96863.00
2023-03-08T02:50:20.196Z,96860.00
2023-03-08T02:52:54.363Z,96863.00
2023-03-08T02:55:25.170Z,96855.00
2023-03-08T02:57:54.458Z,96863.00
2023-03-08T03:00:26.882Z,96857.00
2023-03-08T03:02:57.861Z,96858.00
2023-03-08T03:05:29.481Z,96855.00
2023-03-08T03:08:01.791Z,96842.00
2023-03-08T03:10:42.331Z,96848.00
2023-03-08T03:13:14.267Z,96852.00
2023-03-08T03:15:49.124Z,96852.00
2023-03-08T03:18:23.521Z,96855.00
2023-03-08T03:20:52.871Z,96842.00
2023-03-08T03:23:28.781Z,96838.00
2023-03-08T03:26:08.009Z,96831.00
2023-03-08T03:28:40.064Z,96819.00
2023-03-08T03:31:12.637Z,96832.00
2023-03-08T03:33:43.945Z,96826.00
2023-03-08T03:36:16.571Z,96825.00
2023-03-08T03:38:48.842Z,96825.00
2023-03-08T03:41:20.402Z,96835.00
2023-03-08T03:43:54.708Z,96835.00
2023-03-08T03:46:26.136Z,96831.00
2023-03-08T03:48:55.516Z,96825.00
2023-03-08T03:51:25.229Z,96824.00
2023-03-08T03:53:56.372Z,96837.00
2023-03-08T03:56:32.431Z,96833.00
2023-03-08T03:59:04.046Z,96827.00
2023-03-08T04:01:34.001Z,96841.00
2023-03-08T04:04:08.115Z,96838.00
2023-03-08T04:06:41.930Z,96835.00
2023-03-08T04:09:15.633Z,96844.00
2023-03-08T04:11:55.170Z,96842.00
2023-03-08T04:14:27.489Z,96845.00
2023-03-08T04:17:01.145Z,96828.00
2023-03-08T04:19:32.641Z,96839.00
2023-03-08T04:22:07.213Z,96842.00
2023-03-08T04:24:38.567Z,96829.00
2023-03-08T04:27:10.936Z,96841.00
2023-03-08T04:29:41.767Z,96840.00
2023-03-08T04:32:15.741Z,96838.00
2023-03-08T04:34:49.481Z,96841.00
2023-03-08T04:37:25.810Z,96822.00
2023-03-08T04:40:02.879Z,96816.00
2023-03-08T04:42:33.780Z,96809.00
2023-03-08T04:45:10.692Z,96802.00
2023-03-08T04:47:48.442Z,96802.00
2023-03-08T04:50:25.424Z,96791.00
2023-03-08T04:52:54.740Z,96797.00
2023-03-08T04:55:30.739Z,96785.00
2023-03-08T04:58:04.537Z,96782.00
2023-03-08T05:00:40.252Z,96783.00
2023-03-08T05:03:09.659Z,96766.00
2023-03-08T05:05:52.941Z,96761.00
2023-03-08T05:08:30.121Z,96776.00
2023-03-08T05:11:11.002Z,96774.00
2023-03-08T05:13:47.649Z,96768.00
2023-03-08T05:16:17.022Z,96766.00
2023-03-08T05:18:56.099Z,96764.00
2023-03-08T05:21:25.776Z,96750.00
2023-03-08T05:24:00.694Z,96756.00
2023-03-08T05:26:43.427Z,96750.00
2023-03-08T05:29:23.622Z,96745.00
2023-03-08T05:32:04.565Z,96749.00
2023-03-08T05:34:37.775Z,96747.00
2023-03-08T05:37:16.824Z,96744.00
2023-03-08T05:39:48.384Z,96756.00
2023-03-08T05:42:21.859Z,96759.00
2023-03-08T05:44:52.649Z,96751.00
2023-03-08T05:47:24.452Z,96767.00
2023-03-08T05:50:05.430Z,96751.00
2023-03-08T05:52:38.279Z,96753.00
2023-03-08T05:55:16.176Z,96762.00
2023-03-08T05:57:51.148Z,96754.00
2023-03-08T06:00:25.154Z,96767.00
2023-03-08T06:03:05.324Z,96760.00
2023-03-08T06:05:37.544Z,96767.00
2023-03-08T06:08:08.565Z,96775.00
2023-03-08T06:10:37.932Z,96773.00
2023-03-08T06:13:07.375Z,96779.00
2023-03-08T06:15:38.057Z,96776.00
2023-03-08T06:18:22.848Z,96780.00
2023-03-08T06:21:01.033Z,96766.00
2023-03-08T06:23:31.920Z,96769.00
2023-03-08T06:26:03.852Z,96770.00
2023-03-08T06:28:36.358Z,96774.00
2023-03-08T06:31:16.770Z,96770.00
2023-03-08T06:33:50.070Z,96772.00
2023-03-08T06:36:20.231Z,96769.00
2023-03-08T06:38:57.534Z,96763.00
2023-03-08T06:41:26.929Z,96767.00
2023-03-08T06:44:04.988Z,96762.00
2023-03-08T06:46:37.153Z,96763.00
2023-03-08T06:49:11.521Z,96764.00
2023-03-08T06:51:46.218Z,96775.00
2023-03-08T06:54:18.930Z,96771.00
2023-03-08T06:56:53.757Z,96770.00
2023-03-08T06:59:25.869Z,96773.00
2023-03-08T07:01:58.741Z,96778.00
2023-03-08T07:04:27.968Z,96783.00
2023-03-08T07:06:57.392Z,96773.00
2023-03-08T07:09:29.059Z,96770.00
2023-03-08T07:12:03.817Z,96773.00
2023-03-08T07:14:35.610Z,96777.00
2023-03-08T07:17:13.970Z,96781.00
2023-03-08T07:19:43.261Z,96777.00
2023-03-08T07:22:17.819Z,96780.00
2023-03-08T07:24:51.980Z,96778.00
2023-03-08T07:27:23.004Z,96777.00
2023-03-08T07:30:01.349Z,96780.00
2023-03-08T07:32:32.308Z,96764.00
2023-03-08T07:35:04.191Z,96775.00
2023-03-08T07:37:33.648Z,96778.00
2023-03-08T07:40:02.869Z,96790.00
2023-03-08T07:42:34.678Z,96778.00
2023-03-08T07:45:04.236Z,96759.00
2023-03-08T07:47:37.940Z,96758.00
2023-03-08T07:50:07.623Z,96774.00
2023-03-08T07:52:36.869Z,96769.00
2023-03-08T07:55:06.889Z,96765.00
2023-03-08T07:57:41.564Z,96771.00
2023-03-08T08:00:11.951Z,96768.00
2023-03-08T08:02:42.979Z,96778.00
2023-03-08T08:05:12.278Z,96774.00
2023-03-08T08:07:47.989Z,96767.00
2023-03-08T08:10:17.497Z,96771.00
2023-03-08T08:12:49.840Z,96768.00
2023-03-08T08:15:19.578Z,96766.00
2023-03-08T08:17:50.506Z,96761.00
2023-03-08T08:20:19.908Z,96733.00
2023-03-08T08:22:55.443Z,96751.00
2023-03-08T08:25:27.213Z,96746.00
2023-03-08T08:27:56.555Z,96731.00
2023-03-08T08:30:25.858Z,96729.00
2023-03-08T08:32:56.633Z,96731.00
2023-03-08T08:35:42.138Z,96718.00
2023-03-08T08:38:12.284Z,96713.00
2023-03-08T08:40:41.663Z,96701.00
2023-03-08T08:43:12.841Z,96701.00
2023-03-08T08:45:46.111Z,96687.00
2023-03-08T08:48:21.577Z,96685.00
2023-03-08T08:50:53.841Z,96681.00
2023-03-08T08:53:23.499Z,96665.00
2023-03-08T08:55:52.850Z,96656.00
2023-03-08T08:58:24.663Z,96664.00
2023-03-08T09:00:59.799Z,96665.00
2023-03-08T09:03:34.845Z,96657.00
2023-03-08T09:06:03.940Z,96652.00
2023-03-08T09:08:33.432Z,96651.00
2023-03-08T09:11:08.522Z,96634.00
2023-03-08T09:13:42.279Z,96633.00
2023-03-08T09:16:29.276Z,96633.00
2023-03-08T09:19:10.673Z,96606.00
2023-03-08T09:21:45.400Z,96603.00
2023-03-08T09:24:23.085Z,96596.00
2023-03-08T09:27:02.974Z,96598.00
2023-03-08T09:29:38.544Z,96595.00
2023-03-08T09:32:16.587Z,96589.00
2023-03-08T09:34:50.303Z,96583.00
2023-03-08T09:37:22.423Z,96571.00
2023-03-08T09:40:03.302Z,96571.00
2023-03-08T09:42:40.273Z,96550.00
2023-03-08T09:45:30.160Z,96547.00
2023-03-08T09:48:14.464Z,96536.00
2023-03-08T09:51:06.337Z,96523.00
2023-03-08T09:54:11.756Z,96525.00
2023-03-08T09:57:29.717Z,96511.00
2023-03-08T10:00:15.454Z,96498.00
2023-03-08T10:03:07.427Z,96501.00
2023-03-08T10:05:48.510Z,96487.00
2023-03-08T10:08:27.744Z,96486.00
2023-03-08T10:11:14.401Z,96493.00
2023-03-08T10:14:00.752Z,96485.00
2023-03-08T10:16:38.264Z,96477.00
2023-03-08T10:22:26.030Z,96485.00
2023-03-08T10:24:59.307Z,96471.00
2023-03-08T10:27:44.471Z,96465.00
2023-03-08T10:30:30.353Z,96462.00
2023-03-08T10:33:13.858Z,96466.00
2023-03-08T10:36:05.088Z,96470.00
2023-03-08T10:38:47.891Z,96476.00
2023-03-08T10:41:35.647Z,96477.00
2023-03-08T10:44:16.424Z,96460.00
2023-03-08T10:47:11.373Z,96454.00
2023-03-08T10:50:11.083Z,96438.00
2023-03-08T10:52:53.752Z,96450.00
2023-03-08T10:55:42.304Z,96463.00
2023-03-08T10:58:49.010Z,96448.00
2023-03-08T11:01:41.668Z,96448.00
2023-03-08T11:04:24.364Z,96437.00
2023-03-08T11:07:28.241Z,96427.00
2023-03-08T11:10:24.646Z,96425.00
2023-03-08T11:13:09.684Z,96417.00
2023-03-08T11:16:12.182Z,96414.00
2023-03-08T11:19:08.828Z,96407.00
2023-03-08T11:22:06.882Z,96407.00
2023-03-08T11:25:08.458Z,96408.00
2023-03-08T11:27:56.889Z,96413.00
2023-03-08T11:30:52.195Z,96415.00
2023-03-08T11:33:50.143Z,96404.00
2023-03-08T11:36:36.418Z,96402.00
2023-03-08T11:39:16.076Z,96402.00
2023-03-08T11:41:59.085Z,96398.00
2023-03-08T11:45:33.257Z,96390.00
2023-03-08T11:48:26.882Z,96377.00
2023-03-08T11:51:03.448Z,96378.00
2023-03-08T11:53:57.431Z,96367.00
2023-03-08T11:57:08.247Z,96360.00
2023-03-08T11:59:51.486Z,96358.00
2023-03-08T12:02:41.156Z,96342.00
2023-03-08T12:05:29.681Z,96348.00
2023-03-08T12:08:05.662Z,96333.00
2023-03-08T12:10:51.317Z,96339.00
2023-03-08T12:13:35.292Z,96326.00
2023-03-08T12:16:09.593Z,96331.00
2023-03-08T12:18:51.347Z,96327.00
2023-03-08T12:21:39.795Z,96326.00
2023-03-08T12:24:28.389Z,96314.00
2023-03-08T12:27:05.888Z,96298.00
2023-03-08T12:29:55.939Z,96304.00
2023-03-08T12:32:28.790Z,96308.00
2023-03-08T12:35:07.279Z,96284.00
2023-03-08T12:37:54.665Z,96289.00
2023-03-08T12:41:03.651Z,96282.00
2023-03-08T12:43:41.854Z,96279.00
2023-03-08T12:46:28.545Z,96299.00
2023-03-08T12:49:09.370Z,96283.00
2023-03-08T12:51:43.745Z,96284.00
2023-03-08T12:54:27.430Z,96286.00
2023-03-08T12:57:10.274Z,96282.00
2023-03-08T12:59:50.034Z,96293.00
2023-03-08T13:02:56.169Z,96288.00
2023-03-08T13:05:42.062Z,96262.00
2023-03-08T13:08:57.984Z,96279.00
2023-03-08T13:11:45.131Z,96263.00
2023-03-08T13:14:45.528Z,96265.00
2023-03-08T13:18:11.227Z,96262.00
2023-03-08T13:21:17.450Z,96263.00
2023-03-08T13:24:00.238Z,96258.00
2023-03-08T13:27:24.554Z,96252.00
2023-03-08T13:30:26.603Z,96246.00
2023-03-08T13:33:06.335Z,96235.00
2023-03-08T13:35:43.831Z,96249.00
2023-03-08T13:38:30.571Z,96244.00
2023-03-08T13:41:25.472Z,96239.00
2023-03-08T13:44:17.984Z,96233.00
2023-03-08T13:46:57.967Z,96236.00
2023-03-08T13:49:36.384Z,96218.00
2023-03-08T13:52:30.363Z,96218.00
2023-03-08T13:55:21.093Z,96219.00
2023-03-08T13:58:17.677Z,96210.00
2023-03-08T14:01:06.653Z,96220.00
2023-03-08T14:03:46.788Z,96223.00
2023-03-08T14:06:44.591Z,96220.00
2023-03-08T14:09:21.220Z,96219.00
2023-03-08T14:12:22.832Z,96203.00
2023-03-08T14:14:56.861Z,96211.00
2023-03-08T14:17:35.543Z,96207.00
2023-03-08T14:20:22.711Z,96198.00
2023-03-08T14:23:00.706Z,96195.00
2023-03-08T14:25:36.584Z,96191.00
2023-03-08T14:31:39.494Z,96191.00
2023-03-08T14:34:22.413Z,96188.00
2023-03-08T14:37:05.450Z,96187.00
2023-03-08T14:39:40.018Z,96188.00
2023-03-08T14:42:27.739Z,96179.00
2023-03-08T14:45:08.310Z,96183.00
2023-03-08T14:47:59.009Z,96179.00
2023-03-08T14:50:39.469Z,96167.00
2023-03-08T14:53:29.702Z,96169.00
2023-03-08T14:56:22.554Z,96165.00
2023-03-08T14:59:27.369Z,96176.00
2023-03-08T15:02:24.293Z,96175.00
2023-03-08T15:04:59.536Z,96166.00
2023-03-08T15:07:39.483Z,96158.00
2023-03-08T15:10:40.274Z,96163.00
2023-03-08T15:13:23.747Z,96169.00
2023-03-08T15:16:04.391Z,96162.00
2023-03-08T15:18:50.810Z,96149.00
2023-03-08T15:21:28.349Z,96156.00
2023-03-08T15:24:05.450Z,96157.00
2023-03-08T15:26:50.554Z,96162.00
2023-03-08T15:29:59.535Z,96154.00
2023-03-08T15:32:38.357Z,96168.00
2023-03-08T15:35:20.969Z,96148.00
2023-03-08T15:38:08.443Z,96153.00
2023-03-08T15:40:47.780Z,96143.00
2023-03-08T15:43:54.914Z,96138.00
2023-03-08T15:46:38.915Z,96143.00
2023-03-08T15:49:28.126Z,96125.00
2023-03-08T15:52:17.253Z,96128.00
2023-03-08T15:55:03.004Z,96132.00
2023-03-08T15:57:42.035Z,96136.00
2023-03-08T16:00:20.047Z,96133.00
2023-03-08T16:03:14.037Z,96123.00
2023-03-08T16:05:58.746Z,96138.00
2023-03-08T16:08:38.598Z,96136.00
2023-03-08T16:11:20.823Z,96117.00
2023-03-08T16:14:11.586Z,96117.00
2023-03-08T16:16:59.297Z,96106.00
2023-03-08T16:19:58.729Z,96097.00
2023-03-08T16:22:57.479Z,96089.00
2023-03-08T16:25:49.197Z,96088.00
2023-03-08T16:28:49.729Z,96092.00
2023-03-08T16:31:41.534Z,96077.00
2023-03-08T16:34:31.640Z,96073.00
2023-03-08T16:37:34.895Z,96066.00
2023-03-08T16:40:15.881Z,96049.00
2023-03-08T16:43:17.940Z,96067.00
2023-03-08T16:46:03.240Z,96075.00
2023-03-08T16:48:59.662Z,96078.00
2023-03-08T16:51:44.820Z,96079.00
2023-03-08T16:54:38.754Z,96078.00
2023-03-08T16:57:19.391Z,96085.00
2023-03-08T16:59:58.907Z,96085.00
2023-03-08T17:02:45.249Z,96094.00
2023-03-08T17:05:26.330Z,96091.00
2023-03-08T17:08:14.645Z,96091.00
2023-03-08T17:11:01.797Z,96077.00
2023-03-08T17:13:50.919Z,96087.00
2023-03-08T17:16:34.500Z,96066.00
2023-03-08T17:19:19.484Z,96058.00
2023-03-08T17:21:55.417Z,96063.00
2023-03-08T17:24:36.961Z,96051.00
2023-03-08T17:27:28.068Z,96074.00
2023-03-08T17:30:06.995Z,96078.00
2023-03-08T17:33:00.514Z,96081.00
2023-03-08T17:35:38.043Z,96064.00
2023-03-08T17:38:29.184Z,96071.00
2023-03-08T17:41:07.595Z,96070.00
2023-03-08T17:43:44.524Z,96072.00
2023-03-08T17:46:31.063Z,96060.00
2023-03-08T17:49:25.501Z,96073.00
2023-03-08T17:52:11.754Z,96088.00
2023-03-08T17:54:49.200Z,96087.00
2023-03-08T17:57:32.355Z,96083.00
2023-03-08T18:00:16.229Z,96079.00
2023-03-08T18:02:51.768Z,96068.00
2023-03-08T18:05:31.246Z,96075.00
2023-03-08T18:08:12.953Z,96075.00
2023-03-08T18:11:01.966Z,96073.00
2023-03-08T18:13:47.550Z,96073.00
2023-03-08T18:16:20.527Z,96064.00
2023-03-08T18:18:56.729Z,96070.00
2023-03-08T18:21:43.254Z,96065.00
2023-03-08T18:24:31.712Z,96062.00
2023-03-08T18:27:11.336Z,96064.00
2023-03-08T18:29:55.928Z,96073.00
2023-03-08T18:32:44.230Z,96065.00
2023-03-08T18:35:28.170Z,96063.00
2023-03-08T18:38:07.871Z,96068.00
2023-03-08T18:40:54.001Z,96083.00
2023-03-08T18:43:41.900Z,96078.00
2023-03-08T18:46:32.432Z,96082.00
2023-03-08T18:49:10.418Z,96073.00
2023-03-08T18:52:01.179Z,96075.00
2023-03-08T18:54:57.351Z,96087.00
2023-03-08T18:57:40.895Z,96071.00
2023-03-08T19:00:26.256Z,96094.00
2023-03-08T19:03:13.945Z,96098.00
2023-03-08T19:05:53.897Z,96079.00
2023-03-08T19:08:45.241Z,96095.00
2023-03-08T19:11:24.463Z,96089.00
2023-03-08T19:14:23.447Z,96090.00
2023-03-08T19:16:55.512Z,96098.00
2023-03-08T19:19:49.544Z,96094.00
2023-03-08T19:22:32.564Z,96098.00
2023-03-08T19:25:23.940Z,96113.00
2023-03-08T19:28:07.115Z,96097.00
2023-03-08T19:31:11.867Z,96103.00
2023-03-08T19:33:54.421Z,96114.00
2023-03-08T19:39:42.927Z,96125.00
2023-03-08T19:42:25.333Z,96136.00
2023-03-08T19:44:57.569Z,96131.00
2023-03-08T19:47:39.318Z,96119.00
2023-03-08T19:50:26.541Z,96127.00
2023-03-08T19:53:11.850Z,96124.00
2023-03-08T19:56:07.102Z,96130.00
2023-03-08T19:59:01.132Z,96127.00
2023-03-08T20:02:10.585Z,96135.00
2023-03-08T20:04:56.518Z,96127.00
2023-03-08T20:07:36.797Z,96129.00
2023-03-08T20:10:16.310Z,96128.00
2023-03-08T20:13:07.378Z,96128.00
2023-03-08T20:15:48.546Z,96123.00
2023-03-08T20:18:32.346Z,96125.00
2023-03-08T20:21:12.311Z,96116.00
2023-03-08T20:27:24.100Z,96104.00
2023-03-08T20:30:17.464Z,96109.00
2023-03-08T20:32:57.430Z,96119.00
2023-03-08T20:35:49.534Z,96123.00
2023-03-08T20:38:54.827Z,96124.00
2023-03-08T20:41:38.532Z,96132.00
2023-03-08T20:44:25.855Z,96139.00
2023-03-08T20:47:10.745Z,96138.00
2023-03-08T20:49:53.381Z,96146.00
2023-03-08T20:52:39.890Z,96139.00
2023-03-08T20:55:38.699Z,96144.00
2023-03-08T20:58:10.742Z,96138.00
2023-03-08T21:00:59.055Z,96142.00
2023-03-08T21:03:54.255Z,96137.00
2023-03-08T21:06:40.599Z,96133.00
2023-03-08T21:09:25.437Z,96145.00
2023-03-08T21:12:14.575Z,96135.00
2023-03-08T21:15:04.029Z,96142.00
2023-03-08T21:17:56.108Z,96135.00
2023-03-08T21:20:49.006Z,96147.00
2023-03-08T21:23:29.167Z,96137.00
2023-03-08T21:26:08.878Z,96128.00
2023-03-08T21:28:49.992Z,96127.00
2023-03-08T21:31:33.391Z,96134.00
2023-03-08T21:34:16.394Z,96128.00
2023-03-08T21:36:57.431Z,96118.00
2023-03-08T21:39:43.559Z,96126.00
2023-03-08T21:42:38.127Z,96113.00
2023-03-08T21:45:16.821Z,96114.00
2023-03-08T21:48:14.918Z,96115.00
2023-03-08T21:50:50.238Z,96108.00
2023-03-08T21:53:53.440Z,96124.00
2023-03-08T21:56:43.270Z,96101.00
2023-03-08T21:59:45.080Z,96099.00
2023-03-08T22:02:29.138Z,96096.00
2023-03-08T22:05:10.150Z,96102.00
2023-03-08T22:07:51.694Z,96085.00
2023-03-08T22:10:39.989Z,96089.00
2023-03-08T22:13:18.402Z,96066.00
2023-03-08T22:15:55.212Z,96064.00
2023-03-08T22:18:33.292Z,96072.00
2023-03-08T22:21:22.406Z,96055.00
2023-03-08T22:24:03.576Z,96065.00
2023-03-08T22:26:51.359Z,96055.00
2023-03-08T22:29:41.194Z,96068.00
2023-03-08T22:32:36.345Z,96057.00
2023-03-08T22:35:17.635Z,96059.00
2023-03-08T22:38:04.184Z,96052.00
2023-03-08T22:40:41.527Z,96050.00
2023-03-08T22:43:15.331Z,96041.00
2023-03-08T22:45:55.782Z,96044.00
2023-03-08T22:48:34.562Z,96051.00
2023-03-08T22:51:11.725Z,96051.00
2023-03-08T22:53:53.134Z,96054.00
2023-03-08T22:56:41.305Z,96048.00
2023-03-08T22:59:16.113Z,96063.00
2023-03-08T23:02:00.416Z,96068.00
2023-03-08T23:04:35.221Z,96063.00
2023-03-08T23:07:22.376Z,96065.00
2023-03-08T23:10:11.074Z,96069.00
2023-03-08T23:12:56.020Z,96067.00
2023-03-08T23:15:32.122Z,96069.00
2023-03-08T23:18:26.640Z,96063.00
2023-03-08T23:21:11.711Z,96069.00
2023-03-08T23:23:55.890Z,96057.00
2023-03-08T23:26:42.208Z,96062.00
2023-03-08T23:29:24.337Z,96053.00
2023-03-08T23:32:20.383Z,96047.00
2023-03-08T23:34:58.392Z,96042.00
2023-03-08T23:37:39.929Z,96043.00
2023-03-08T23:40:15.412Z,96056.00
2023-03-08T23:43:01.320Z,96041.00
2023-03-08T23:45:48.882Z,96040.00
2023-03-08T23:48:38.442Z,96039.00
2023-03-08T23:51:16.852Z,96037.00
2023-03-08T23:54:01.572Z,96049.00
2023-03-08T23:56:38.461Z,96025.00
